Time;durP1;ratioP1;P1;durP2;ratioP2;P2;SDS_P1;SDS_P2;PMS_P1;PMS_P2;Temp;Humidity;BMP_temperature;BMP_pressure;BME280_temperature;BME280_humidity;BME280_pressure;Samples;Min_cycle;Max_cycle;Signal;HPM_P1;HPM_P2
2022/04/08 00:00:04;;;;;;;14.70;3.90;;;;;;;6.93;96.45;94645.41;5046696;28;20419;-76
2022/04/08 00:02:30;;;;;;;11.95;3.00;;;;;;;6.98;96.12;94663.34;5046296;28;20048;-76
2022/04/08 00:04:57;;;;;;;18.15;3.70;;;;;;;6.88;96.87;94664.56;5047075;28;20048;-78
2022/04/08 00:07:24;;;;;;;10.68;3.17;;;;;;;6.83;97.82;94683.72;5046043;28;20057;-77
2022/04/08 00:09:51;;;;;;;16.83;4.40;;;;;;;6.77;98.32;94650.66;5046017;28;20048;-76
2022/04/08 00:12:17;;;;;;;13.70;3.00;;;;;;;6.68;96.54;94651.88;5040842;28;20053;-77
2022/04/08 00:14:44;;;;;;;17.35;3.75;;;;;;;6.63;95.89;94646.69;5046313;28;20056;-76
2022/04/08 00:17:10;;;;;;;12.88;3.10;;;;;;;6.56;94.74;94666.16;5046391;28;20053;-77
2022/04/08 00:19:37;;;;;;;18.52;4.38;;;;;;;6.50;95.24;94660.19;5045759;28;20056;-77
2022/04/08 00:22:05;;;;;;;11.05;3.05;;;;;;;6.46;95.01;94691.72;5046205;28;20140;-78
2022/04/08 00:24:32;;;;;;;16.55;3.30;;;;;;;6.53;95.58;94686.56;5045739;28;20114;-76
2022/04/08 00:26:59;;;;;;;14.65;3.67;;;;;;;6.51;95.31;94675.28;5046374;28;20061;-77
2022/04/08 00:29:25;;;;;;;13.32;3.08;;;;;;;6.48;95.10;94678.66;5045256;28;20052;-77
2022/04/08 00:31:57;;;;;;;15.02;3.92;;;;;;;6.47;95.27;94655.47;5046617;28;20057;-78
2022/04/08 00:34:24;;;;;;;10.77;3.13;;;;;;;6.42;94.71;94654.84;5046331;28;20122;-77
2022/04/08 00:36:50;;;;;;;13.35;3.05;;;;;;;6.42;94.68;94676.47;5046335;28;20071;-76
2022/04/08 00:39:17;;;;;;;14.13;3.63;;;;;;;6.44;94.85;94677.75;5046025;28;20053;-78
2022/04/08 00:41:45;;;;;;;13.88;3.58;;;;;;;6.46;94.62;94667.38;5035515;28;20052;-77
2022/04/08 00:44:11;;;;;;;13.02;2.97;;;;;;;6.46;95.07;94677.41;5026436;28;20431;-77
2022/04/08 00:46:38;;;;;;;16.10;3.50;;;;;;;6.42;94.82;94685.41;5025809;28;20054;-77
2022/04/08 00:49:04;;;;;;;13.48;3.30;;;;;;;6.44;94.97;94693.97;5026142;28;20092;-76
2022/04/08 00:51:31;;;;;;;15.73;3.15;;;;;;;6.38;94.28;94689.09;5025605;28;20075;-76
2022/04/08 00:53:59;;;;;;;17.17;4.50;;;;;;;6.35;94.21;94701.34;5026570;28;20053;-78
2022/04/08 00:56:26;;;;;;;16.65;3.80;;;;;;;6.34;94.32;94691.66;5025842;28;20083;-77
2022/04/08 00:58:55;;;;;;;15.35;3.90;;;;;;;6.38;94.79;94706.09;5026013;28;20045;-78
2022/04/08 01:01:23;;;;;;;17.08;3.15;;;;;;;6.33;94.11;94710.94;5025693;28;20056;-76
2022/04/08 01:03:52;;;;;;;14.90;3.95;;;;;;;6.26;94.18;94708.72;5025651;28;20136;-77
2022/04/08 01:06:19;;;;;;;17.33;3.97;;;;;;;6.24;94.15;94722.59;5026263;28;20131;-78
2022/04/08 01:08:45;;;;;;;18.85;3.40;;;;;;;6.10;93.42;94726.66;5026001;28;20838;-78
2022/04/08 01:11:12;;;;;;;16.60;3.90;;;;;;;6.08;93.14;94728.91;5027427;28;20048;-78
2022/04/08 01:13:38;;;;;;;13.77;3.25;;;;;;;6.03;92.94;94732.59;5026319;28;20502;-76
2022/04/08 01:16:08;;;;;;;16.25;3.88;;;;;;;6.03;93.72;94726.41;5025869;28;20058;-77
2022/04/08 01:18:35;;;;;;;14.85;3.15;;;;;;;6.10;93.21;94726.66;5025687;28;20053;-77
2022/04/08 01:21:03;;;;;;;20.63;4.35;;;;;;;6.08;93.39;94723.50;5026019;28;20049;-76
2022/04/08 01:23:30;;;;;;;17.30;3.70;;;;;;;6.08;92.56;94728.91;5026144;28;20046;-77
2022/04/08 01:25:58;;;;;;;15.90;3.40;;;;;;;6.12;92.64;94724.44;5025597;28;20049;-78
2022/04/08 01:28:27;;;;;;;13.80;3.38;;;;;;;6.07;91.61;94740.84;5025898;28;20061;-79
2022/04/08 01:30:55;;;;;;;16.27;3.33;;;;;;;6.04;91.67;94746.91;5027414;28;20053;-78
2022/04/08 01:33:22;;;;;;;14.95;3.28;;;;;;;6.11;91.79;94734.47;5029615;28;20059;-78
2022/04/08 01:35:48;;;;;;;18.55;3.90;;;;;;;6.15;90.44;94758.91;5028870;28;20058;-78
2022/04/08 01:38:14;;;;;;;12.98;3.05;;;;;;;6.21;89.39;94754.88;5029356;28;20049;-79
2022/04/08 01:40:41;;;;;;;13.68;3.25;;;;;;;6.26;89.18;94779.00;5030738;28;20088;-80
2022/04/08 01:43:09;;;;;;;17.23;3.90;;;;;;;6.18;87.14;94771.78;5029229;28;20058;-79
2022/04/08 01:45:35;;;;;;;20.80;3.38;;;;;;;6.17;86.61;94775.59;5029276;28;20527;-79
2022/04/08 01:48:03;;;;;;;15.10;3.05;;;;;;;6.17;86.23;94781.00;5028888;28;20053;-78
2022/04/08 01:50:29;;;;;;;14.27;3.67;;;;;;;6.17;85.61;94781.00;5028946;28;20107;-79
2022/04/08 01:52:56;;;;;;;19.08;4.07;;;;;;;6.17;87.00;94775.59;5028482;28;20057;-78
2022/04/08 01:55:22;;;;;;;13.57;3.15;;;;;;;6.16;87.23;94779.41;5029249;28;20061;-79
2022/04/08 01:57:49;;;;;;;15.75;3.38;;;;;;;6.22;87.65;94778.91;5028495;28;20045;-80
2022/04/08 02:00:17;;;;;;;11.23;3.03;;;;;;;6.22;88.20;94781.59;4989724;28;20050;-79
2022/04/08 02:02:44;;;;;;;12.30;2.88;;;;;;;6.16;87.08;94791.03;4989513;28;20069;-80
2022/04/08 02:05:10;;;;;;;20.40;4.55;;;;;;;6.14;86.87;94795.94;4989647;28;20050;-78
2022/04/08 02:07:37;;;;;;;9.40;2.40;;;;;;;6.20;86.39;94801.94;4989801;28;20050;-79
2022/04/08 02:10:04;;;;;;;14.70;3.80;;;;;;;6.19;86.06;94803.88;4988674;28;20053;-79
2022/04/08 02:12:31;;;;;;;14.57;3.20;;;;;;;6.20;86.67;94797.34;4987711;28;20512;-79
2022/04/08 02:14:57;;;;;;;14.75;3.10;;;;;;;6.13;85.86;94816.00;4988792;28;20054;-78
2022/04/08 02:17:28;;;;;;;14.40;2.97;;;;;;;6.17;86.79;94791.81;4989349;28;20058;-78
2022/04/08 02:19:55;;;;;;;14.07;3.03;;;;;;;6.12;85.52;94802.81;4988865;28;20050;-79
2022/04/08 02:22:24;;;;;;;15.05;3.22;;;;;;;6.11;85.84;94803.91;4989550;28;20065;-78
2022/04/08 02:24:51;;;;;;;13.65;3.38;;;;;;;6.05;84.87;94808.72;4989233;28;20137;-79
2022/04/08 02:27:17;;;;;;;19.15;3.85;;;;;;;5.95;83.83;94812.59;4989361;28;20058;-78
2022/04/08 02:29:44;;;;;;;15.25;3.20;;;;;;;5.94;84.20;94821.00;4988715;28;20176;-79
2022/04/08 02:32:11;;;;;;;13.75;3.28;;;;;;;5.90;83.66;94831.66;4988694;28;20501;-79
2022/04/08 02:34:39;;;;;;;15.00;2.95;;;;;;;5.93;83.86;94830.25;4989115;28;20058;-79
2022/04/08 02:37:06;;;;;;;14.88;2.95;;;;;;;5.95;83.32;94839.63;4988338;28;20058;-79
2022/04/08 02:39:32;;;;;;;15.25;3.00;;;;;;;5.97;84.04;94845.47;4989472;28;20050;-79
2022/04/08 02:41:59;;;;;;;20.25;3.97;;;;;;;5.95;84.28;94846.91;4985664;28;20057;-79
2022/04/08 02:44:26;;;;;;;11.73;3.00;;;;;;;5.97;84.07;94842.00;4989005;28;20057;-79
2022/04/08 02:46:52;;;;;;;13.50;2.75;;;;;;;5.96;84.76;94838.50;4988783;28;20756;-79
2022/04/08 02:49:19;;;;;;;15.43;3.30;;;;;;;5.91;83.11;94830.56;4988715;28;20053;-79
2022/04/08 02:51:47;;;;;;;13.75;2.70;;;;;;;5.98;82.75;94828.16;4989412;28;20532;-79
2022/04/08 02:54:15;;;;;;;16.27;3.70;;;;;;;5.99;81.84;94840.53;4988325;28;20453;-79
2022/04/08 02:56:41;;;;;;;15.73;3.58;;;;;;;6.06;81.78;94823.03;4988814;28;20054;-79
2022/04/08 02:59:08;;;;;;;11.18;2.72;;;;;;;6.10;80.85;94845.56;5008897;28;20049;-78
2022/04/08 03:01:34;;;;;;;14.57;3.33;;;;;;;6.16;80.77;94849.66;5028137;28;20053;-79
2022/04/08 03:04:01;;;;;;;18.60;3.65;;;;;;;6.22;80.81;94853.78;5027692;28;20076;-78
2022/04/08 03:06:28;;;;;;;15.40;3.38;;;;;;;6.26;80.26;94854.69;5028059;28;20042;-79
2022/04/08 03:08:57;;;;;;;10.10;3.20;;;;;;;6.34;81.02;94844.97;5027043;28;20637;-77
2022/04/08 03:11:23;;;;;;;14.60;3.13;;;;;;;6.25;80.75;94842.31;5025479;28;20645;-77
2022/04/08 03:13:50;;;;;;;13.98;3.15;;;;;;;6.19;81.49;94849.03;5027248;28;20440;-78
2022/04/08 03:16:16;;;;;;;11.80;3.17;;;;;;;6.20;80.98;94850.59;5027429;28;20050;-78
2022/04/08 03:18:46;;;;;;;9.40;2.85;;;;;;;6.18;80.53;94858.25;5027609;28;20049;-78
2022/04/08 03:21:12;;;;;;;8.90;3.03;;;;;;;6.16;80.36;94857.78;5026907;28;20049;-79
2022/04/08 03:23:39;;;;;;;10.90;3.15;;;;;;;6.19;79.43;94866.03;5027843;28;20053;-78
2022/04/08 03:26:07;;;;;;;13.25;3.28;;;;;;;6.21;80.20;94863.00;5026762;28;20049;-79
2022/04/08 03:28:34;;;;;;;13.75;2.40;;;;;;;6.23;80.49;94871.59;5027719;28;20061;-79
2022/04/08 03:31:01;;;;;;;13.73;3.10;;;;;;;6.16;80.93;94871.28;5026601;28;20053;-79
2022/04/08 03:33:27;;;;;;;10.75;2.75;;;;;;;6.08;82.44;94866.72;5027136;28;20049;-78
2022/04/08 03:35:54;;;;;;;12.15;2.97;;;;;;;6.01;81.74;94870.75;5026849;28;20049;-77
2022/04/08 03:38:20;;;;;;;18.67;3.15;;;;;;;5.98;81.31;94876.78;5026883;28;20046;-79
2022/04/08 03:40:48;;;;;;;8.93;2.67;;;;;;;5.98;82.12;94881.41;5020698;28;20049;-79
2022/04/08 03:43:15;;;;;;;11.18;2.85;;;;;;;5.96;81.44;94873.63;5026726;28;20116;-77
2022/04/08 03:45:42;;;;;;;16.10;4.43;;;;;;;5.91;82.29;94886.50;5018983;28;20049;-78
2022/04/08 03:48:09;;;;;;;11.35;3.10;;;;;;;5.90;81.98;94893.00;5026526;28;20053;-78
2022/04/08 03:50:36;;;;;;;8.98;2.92;;;;;;;5.93;81.78;94887.78;5026871;28;20763;-78
2022/04/08 03:53:03;;;;;;;9.43;3.03;;;;;;;6.00;81.60;94901.59;5025907;28;20140;-78
2022/04/08 03:55:30;;;;;;;11.57;2.78;;;;;;;6.01;81.26;94891.56;5027646;28;20131;-78
2022/04/08 03:57:56;;;;;;;11.50;2.95;;;;;;;6.02;80.98;94901.25;5026185;28;20060;-79
2022/04/08 04:00:24;;;;;;;8.95;2.30;;;;;;;6.10;81.46;94896.91;5026612;28;20053;-78
2022/04/08 04:02:50;;;;;;;10.13;3.10;;;;;;;6.08;82.16;94901.88;5026663;28;20052;-79
2022/04/08 04:05:17;;;;;;;8.30;2.63;;;;;;;6.10;83.14;94905.03;5026483;28;20049;-80
2022/04/08 04:07:44;;;;;;;7.78;2.83;;;;;;;6.06;84.05;94909.50;5026839;28;20431;-78
2022/04/08 04:10:12;;;;;;;11.60;3.30;;;;;;;6.18;84.37;94912.31;5026133;28;20104;-78
2022/04/08 04:12:38;;;;;;;12.75;2.58;;;;;;;6.20;84.84;94901.97;5026834;28;20049;-80
2022/04/08 04:15:08;;;;;;;14.38;3.88;;;;;;;6.18;85.65;94906.91;5024635;28;20060;-79
2022/04/08 04:17:36;;;;;;;8.32;2.33;;;;;;;6.20;85.76;94910.06;5024053;28;20783;-78
2022/04/08 04:20:04;;;;;;;13.10;3.53;;;;;;;6.29;86.33;94916.22;5025158;28;20056;-77
2022/04/08 04:22:30;;;;;;;13.65;3.40;;;;;;;6.22;87.56;94924.88;5027154;28;20046;-78
2022/04/08 04:24:57;;;;;;;8.65;3.28;;;;;;;6.31;87.69;94922.09;5026282;28;20060;-78
2022/04/08 04:27:23;;;;;;;11.90;3.63;;;;;;;6.33;88.28;94925.28;5026508;28;20049;-78
2022/04/08 04:29:50;;;;;;;11.48;3.53;;;;;;;6.43;88.78;94926.84;5026175;28;20052;-79
2022/04/08 04:32:18;;;;;;;9.18;3.60;;;;;;;6.53;88.47;94935.38;5026111;28;20053;-81
2022/04/08 04:34:47;;;;;;;15.38;3.83;;;;;;;6.51;88.67;94942.19;5026481;28;20500;-77
2022/04/08 04:37:13;;;;;;;13.70;3.10;;;;;;;6.51;88.68;94948.41;5026284;28;20045;-76
2022/04/08 04:39:40;;;;;;;14.13;3.45;;;;;;;6.46;88.45;94939.69;5026723;28;20080;-76
2022/04/08 04:42:07;;;;;;;12.15;3.45;;;;;;;6.55;88.84;94943.16;5025382;28;20302;-77
2022/04/08 04:44:34;;;;;;;12.38;3.45;;;;;;;6.50;88.53;94946.03;5027012;28;20785;-77
2022/04/08 04:47:01;;;;;;;13.82;3.90;;;;;;;6.42;89.20;94944.16;5020722;28;20049;-78
2022/04/08 04:49:28;;;;;;;10.55;3.42;;;;;;;6.37;89.96;94942.44;5026437;28;20046;-77
2022/04/08 04:51:55;;;;;;;13.57;3.50;;;;;;;6.33;90.25;94944.22;5025735;28;20045;-78
2022/04/08 04:54:22;;;;;;;10.60;3.70;;;;;;;6.44;90.23;94940.03;5025749;28;20053;-76
2022/04/08 04:56:48;;;;;;;11.65;3.03;;;;;;;6.49;90.18;94947.94;5026188;28;20045;-77
2022/04/08 04:59:15;;;;;;;9.35;3.17;;;;;;;6.58;90.22;94952.50;5025188;28;20050;-78
2022/04/08 05:01:41;;;;;;;12.27;2.70;;;;;;;6.37;89.48;94942.44;5026151;28;20042;-78
2022/04/08 05:04:08;;;;;;;13.93;3.47;;;;;;;6.32;90.34;94950.75;5025363;28;20428;-77
2022/04/08 05:06:34;;;;;;;13.20;2.63;;;;;;;6.27;89.13;94961.72;5030670;28;20053;-76
2022/04/08 05:09:04;;;;;;;12.23;3.38;;;;;;;6.25;87.56;94955.84;5029510;28;20136;-77
2022/04/08 05:11:31;;;;;;;9.25;2.65;;;;;;;6.35;87.58;94966.28;5029968;28;20041;-77
2022/04/08 05:13:57;;;;;;;10.68;2.53;;;;;;;6.30;84.84;94971.09;5029365;28;20514;-77
2022/04/08 05:16:24;;;;;;;7.65;2.30;;;;;;;6.34;82.47;94955.81;5029276;28;20476;-77
2022/04/08 05:18:50;;;;;;;8.30;2.55;;;;;;;6.32;81.91;94964.25;5029809;28;20053;-78
2022/04/08 05:21:17;;;;;;;14.18;3.00;;;;;;;6.35;81.03;94965.50;5029173;28;20061;-78
2022/04/08 05:23:43;;;;;;;9.65;2.22;;;;;;;6.40;78.01;94974.22;5030454;28;20057;-77
2022/04/08 05:26:11;;;;;;;11.75;2.70;;;;;;;6.45;77.04;94984.88;5029132;28;20053;-76
2022/04/08 05:28:37;;;;;;;8.43;2.35;;;;;;;6.47;77.21;94984.53;5029971;28;20045;-77
2022/04/08 05:31:04;;;;;;;12.05;2.85;;;;;;;6.51;77.10;94986.25;5028465;28;20052;-77
2022/04/08 05:33:30;;;;;;;11.90;2.85;;;;;;;6.58;75.76;94995.78;5029986;28;20076;-76
2022/04/08 05:35:57;;;;;;;8.82;2.28;;;;;;;6.55;73.71;94991.81;5029088;28;20074;-77
2022/04/08 05:38:23;;;;;;;11.13;2.50;;;;;;;6.48;75.24;94986.94;5029151;28;20037;-77
2022/04/08 05:40:50;;;;;;;7.47;2.33;;;;;;;6.54;74.82;94996.44;5028956;28;20072;-77
2022/04/08 05:43:18;;;;;;;9.80;2.95;;;;;;;6.51;74.97;94993.59;5028951;28;20049;-77
2022/04/08 05:45:45;;;;;;;13.63;2.75;;;;;;;6.47;75.39;95001.56;5034969;28;20060;-77
2022/04/08 05:48:11;;;;;;;8.98;2.45;;;;;;;6.55;77.20;95002.63;5031505;28;20056;-76
2022/04/08 05:50:38;;;;;;;13.73;2.60;;;;;;;6.60;77.85;95004.38;5029548;28;20515;-78
2022/04/08 05:53:05;;;;;;;15.27;3.22;;;;;;;6.50;79.21;95000.91;5028629;28;20045;-78
2022/04/08 05:55:31;;;;;;;15.80;3.00;;;;;;;6.50;79.94;95014.44;5042117;28;20069;-78
2022/04/08 05:57:58;;;;;;;10.38;2.58;;;;;;;6.48;81.00;95013.19;5048412;28;20053;-77
2022/04/08 06:00:26;;;;;;;12.15;2.38;;;;;;;6.46;80.80;95021.59;5048924;28;20053;-77
2022/04/08 06:02:55;;;;;;;25.35;3.70;;;;;;;6.49;80.63;95031.00;5048971;28;20055;-78
2022/04/08 06:05:22;;;;;;;17.48;3.15;;;;;;;6.44;80.21;95028.47;5048646;28;20125;-78
2022/04/08 06:07:50;;;;;;;20.27;3.47;;;;;;;6.47;81.51;95028.63;5048658;28;20067;-77
2022/04/08 06:10:18;;;;;;;17.73;3.45;;;;;;;6.43;81.89;95032.28;5048276;28;20710;-78
2022/04/08 06:12:46;;;;;;;21.95;3.00;;;;;;;6.35;81.82;95033.88;5049258;28;20419;-78
2022/04/08 06:15:13;;;;;;;12.07;3.85;;;;;;;6.42;81.72;95041.50;5044455;28;20044;-78
2022/04/08 06:17:41;;;;;;;14.02;2.50;;;;;;;6.35;82.00;95036.59;5028836;28;20060;-78
2022/04/08 06:20:10;;;;;;;16.48;2.72;;;;;;;6.39;82.07;95037.53;5027680;28;20052;-78
2022/04/08 06:22:39;;;;;;;16.80;2.95;;;;;;;6.40;81.95;95044.53;5029500;28;20389;-78
2022/04/08 06:25:07;;;;;;;21.98;4.10;;;;;;;6.42;83.78;95042.31;5028126;28;20046;-79
2022/04/08 06:27:33;;;;;;;18.05;2.88;;;;;;;6.48;84.44;95043.72;5029014;28;20613;-77
2022/04/08 06:30:00;;;;;;;28.77;4.53;;;;;;;6.54;84.74;95045.13;5028364;28;20057;-78
2022/04/08 06:32:26;;;;;;;13.40;3.20;;;;;;;6.45;84.25;95047.06;5028430;28;20132;-79
2022/04/08 06:34:54;;;;;;;16.20;3.13;;;;;;;6.46;85.21;95042.44;5028727;28;20053;-78
2022/04/08 06:37:20;;;;;;;15.80;3.50;;;;;;;6.39;86.33;95042.16;5027807;28;20060;-78
2022/04/08 06:39:47;;;;;;;14.40;3.15;;;;;;;6.36;85.32;95048.19;5028830;28;20057;-78
2022/04/08 06:42:14;;;;;;;16.63;3.10;;;;;;;6.41;84.86;95051.53;5027394;28;20061;-78
2022/04/08 06:44:40;;;;;;;16.30;2.78;;;;;;;6.42;85.45;95052.31;5028994;28;20056;-78
2022/04/08 06:47:07;;;;;;;15.35;2.78;;;;;;;6.44;85.93;95040.06;5022463;28;20424;-78
2022/04/08 06:49:34;;;;;;;20.35;3.50;;;;;;;6.45;86.10;95040.84;5028537;28;20053;-78
2022/04/08 06:52:02;;;;;;;17.90;3.10;;;;;;;6.47;86.39;95038.63;5028200;28;20060;-78
2022/04/08 06:54:30;;;;;;;12.45;3.00;;;;;;;6.45;87.19;95047.06;5028123;28;20044;-79
2022/04/08 06:56:56;;;;;;;11.02;2.70;;;;;;;6.32;85.51;95048.06;5028083;28;20225;-77
2022/04/08 06:59:23;;;;;;;41.13;4.35;;;;;;;6.35;86.42;95054.72;5027086;28;20045;-77
2022/04/08 07:01:49;;;;;;;19.25;3.00;;;;;;;6.27;85.54;95056.34;5028656;28;20134;-76
2022/04/08 07:04:16;;;;;;;24.27;3.92;;;;;;;6.19;86.66;95049.03;5027030;28;20053;-79
2022/04/08 07:06:42;;;;;;;14.20;2.97;;;;;;;6.22;87.58;95045.72;5028676;28;20053;-78
2022/04/08 07:09:10;;;;;;;12.82;2.30;;;;;;;6.14;87.44;95046.50;5027099;28;20049;-79
2022/04/08 07:11:37;;;;;;;15.73;3.13;;;;;;;6.08;86.87;95045.09;5028225;28;20056;-78
2022/04/08 07:14:04;;;;;;;15.15;3.42;;;;;;;6.09;87.39;95043.97;5027049;28;20675;-78
2022/04/08 07:16:30;;;;;;;19.98;3.85;;;;;;;6.03;88.31;95034.44;5023015;28;20056;-79
2022/04/08 07:18:56;;;;;;;15.00;3.40;;;;;;;6.09;89.15;95033.97;5027787;28;20053;-79
2022/04/08 07:21:23;;;;;;;15.35;3.65;;;;;;;6.13;89.16;95034.13;5027072;28;20045;-78
2022/04/08 07:23:50;;;;;;;14.05;2.95;;;;;;;6.05;89.46;95037.63;5028276;28;20049;-78
2022/04/08 07:26:20;;;;;;;13.32;3.28;;;;;;;6.08;89.80;95035.06;5026717;28;20049;-78
2022/04/08 07:28:46;;;;;;;12.27;3.03;;;;;;;6.18;90.13;95026.63;5027620;28;20053;-78
2022/04/08 07:31:13;;;;;;;11.45;2.80;;;;;;;6.14;89.58;95022.19;5026494;28;20049;-79
2022/04/08 07:33:40;;;;;;;13.57;3.35;;;;;;;6.09;89.60;95014.25;5028441;28;20108;-77
2022/04/08 07:36:06;;;;;;;10.63;3.22;;;;;;;6.20;91.05;95018.97;5026759;28;20056;-79
2022/04/08 07:38:33;;;;;;;13.10;3.50;;;;;;;6.22;90.49;95024.09;5027897;28;20046;-77
2022/04/08 07:40:59;;;;;;;13.10;3.38;;;;;;;6.20;90.27;95015.47;5026964;28;20049;-77
2022/04/08 07:43:27;;;;;;;11.48;3.22;;;;;;;6.24;91.01;95014.53;5026881;28;20041;-78
2022/04/08 07:45:54;;;;;;;9.98;2.90;;;;;;;6.45;91.22;95017.31;5024110;28;20049;-78
2022/04/08 07:48:20;;;;;;;12.20;3.38;;;;;;;6.47;91.15;95017.81;5026675;28;20057;-77
2022/04/08 07:50:47;;;;;;;8.38;2.83;;;;;;;6.36;90.50;95016.53;5027750;28;20046;-77
2022/04/08 07:53:13;;;;;;;12.73;3.60;;;;;;;6.48;91.06;95008.56;5026363;28;20530;-75
2022/04/08 07:55:40;;;;;;;11.23;3.05;;;;;;;6.42;90.36;95009.03;5027890;28;20049;-76
2022/04/08 07:58:06;;;;;;;10.25;2.45;;;;;;;6.43;90.21;95011.44;5025959;28;20045;-77
2022/04/08 08:00:34;;;;;;;15.05;3.50;;;;;;;6.60;90.43;95004.38;5027483;28;20072;-77
2022/04/08 08:03:01;;;;;;;11.75;3.03;;;;;;;6.43;89.18;95003.34;5026723;28;20126;-77
2022/04/08 08:05:28;;;;;;;11.02;3.45;;;;;;;6.68;90.89;95008.94;5026766;28;20044;-78
2022/04/08 08:07:56;;;;;;;14.27;3.15;;;;;;;6.68;90.98;95006.22;5027259;28;20045;-78
2022/04/08 08:10:24;;;;;;;11.75;3.50;;;;;;;6.83;90.77;95002.97;5026105;28;20050;-78
2022/04/08 08:12:51;;;;;;;9.68;3.03;;;;;;;6.91;89.37;95006.75;5027251;28;20045;-77
2022/04/08 08:15:18;;;;;;;11.90;2.97;;;;;;;7.02;90.24;95000.63;5025827;28;20037;-77
2022/04/08 08:17:46;;;;;;;12.95;3.33;;;;;;;6.73;88.00;94992.53;5027314;28;20057;-77
2022/04/08 08:20:17;;;;;;;9.43;2.92;;;;;;;6.72;87.42;94997.13;5025817;28;20049;-78
2022/04/08 08:22:44;;;;;;;13.88;3.83;;;;;;;6.57;87.51;94999.59;5026791;28;20052;-77
2022/04/08 08:25:11;;;;;;;10.23;3.00;;;;;;;6.54;86.98;95001.84;5025681;28;20428;-78
2022/04/08 08:27:39;;;;;;;10.32;3.08;;;;;;;6.43;88.39;94989.81;5027012;28;20514;-77
2022/04/08 08:30:07;;;;;;;11.00;3.55;;;;;;;6.33;85.94;94983.97;5026192;28;20136;-77
2022/04/08 08:32:33;;;;;;;13.95;3.25;;;;;;;6.18;85.78;94980.69;5026615;28;20045;-77
2022/04/08 08:35:01;;;;;;;7.20;2.42;;;;;;;6.25;87.01;94980.97;5027227;28;20060;-77
2022/04/08 08:37:28;;;;;;;12.77;3.15;;;;;;;6.31;87.84;94980.78;5045969;28;20041;-77
2022/04/08 08:39:56;;;;;;;13.55;3.40;;;;;;;6.50;88.76;94984.69;5045991;28;20045;-77
2022/04/08 08:42:24;;;;;;;9.23;3.00;;;;;;;6.67;88.13;94983.00;5045656;28;20061;-77
2022/04/08 08:44:50;;;;;;;9.82;2.83;;;;;;;6.45;86.01;94979.44;5046973;28;20056;-78
2022/04/08 08:47:18;;;;;;;9.15;3.13;;;;;;;6.47;87.97;94974.53;5045000;28;20049;-78
2022/04/08 08:49:48;;;;;;;12.00;4.32;;;;;;;6.75;88.67;94979.47;5046686;28;20531;-78
2022/04/08 08:52:18;;;;;;;8.38;2.40;;;;;;;6.96;88.64;94974.88;5039256;28;20512;-77
2022/04/08 08:54:45;;;;;;;11.05;3.35;;;;;;;7.00;87.72;94970.41;5046684;28;20048;-78
2022/04/08 08:57:12;;;;;;;10.27;3.03;;;;;;;6.79;87.63;94966.88;5046209;28;20049;-77
2022/04/08 08:59:39;;;;;;;10.82;3.30;;;;;;;6.64;85.63;94962.84;5045681;28;20059;-78
2022/04/08 09:02:05;;;;;;;12.90;3.13;;;;;;;6.71;86.67;94962.31;5046464;28;20539;-77
2022/04/08 09:04:32;;;;;;;7.50;2.45;;;;;;;6.74;87.38;94956.25;5045854;28;20053;-78
2022/04/08 09:06:58;;;;;;;9.82;2.80;;;;;;;6.93;88.01;94953.88;5046642;28;20053;-79
2022/04/08 09:09:31;;;;;;;7.07;2.65;;;;;;;6.91;87.29;94939.91;5045560;28;20053;-78
2022/04/08 09:11:58;;;;;;;6.53;2.55;;;;;;;7.05;87.01;94936.94;5045988;28;20045;-77
2022/04/08 09:14:30;;;;;;;10.90;3.00;;;;;;;7.06;85.97;94936.63;5045701;28;20126;-77
2022/04/08 09:17:03;;;;;;;12.32;3.22;;;;;;;7.10;86.70;94941.34;5031002;28;20099;-77
2022/04/08 09:19:33;;;;;;;9.65;2.72;;;;;;;7.16;86.98;94940.84;5038169;28;20124;-77
2022/04/08 09:22:00;;;;;;;8.07;3.33;;;;;;;7.29;86.88;94936.28;5044944;28;20049;-78
2022/04/08 09:24:27;;;;;;;8.20;2.78;;;;;;;7.27;84.48;94935.81;5045897;28;20049;-77
2022/04/08 09:26:55;;;;;;;10.68;3.90;;;;;;;7.08;83.78;94933.56;5049024;28;20551;-77
2022/04/08 09:29:23;;;;;;;9.32;3.30;;;;;;;7.15;84.36;94928.44;5046638;28;20068;-77
2022/04/08 09:31:50;;;;;;;7.75;2.60;;;;;;;7.14;83.80;94921.41;5045139;28;20053;-77
2022/04/08 09:34:17;;;;;;;6.97;2.75;;;;;;;7.28;85.18;94911.13;5045668;28;20517;-79
2022/04/08 09:36:44;;;;;;;9.07;3.58;;;;;;;7.37;84.40;94908.34;5046108;28;20048;-77
2022/04/08 09:39:12;;;;;;;11.45;2.60;;;;;;;7.22;82.06;94898.13;5045212;28;20048;-77
2022/04/08 09:41:39;;;;;;;6.88;2.55;;;;;;;7.14;81.62;94898.97;5045706;28;20053;-77
2022/04/08 09:44:09;;;;;;;11.27;3.17;;;;;;;7.29;82.63;94882.13;5045011;28;20145;-76
2022/04/08 09:46:36;;;;;;;7.72;2.80;;;;;;;7.51;82.81;94873.59;5045118;28;20049;-78
2022/04/08 09:49:04;;;;;;;8.27;2.60;;;;;;;7.69;84.54;94871.53;5044948;28;20076;-78
2022/04/08 09:51:36;;;;;;;6.80;2.42;;;;;;;7.78;83.25;94868.72;5047518;28;20068;-77
2022/04/08 09:54:05;;;;;;;9.20;2.73;;;;;;;7.84;81.73;94861.97;5048739;28;20318;-77
2022/04/08 09:56:32;;;;;;;8.82;3.05;;;;;;;8.11;81.32;94855.09;5049305;28;20119;-77
2022/04/08 09:59:05;;;;;;;8.18;2.75;;;;;;;8.19;79.18;94856.88;5049105;28;20053;-78
2022/04/08 10:01:34;;;;;;;7.63;2.83;;;;;;;8.31;78.17;94839.84;5047776;28;20037;-78
2022/04/08 10:04:05;;;;;;;7.72;2.65;;;;;;;8.42;77.89;94838.28;5049538;28;20507;-77
2022/04/08 10:06:32;;;;;;;7.53;2.55;;;;;;;8.59;78.13;94827.16;5048312;28;20053;-78
2022/04/08 10:08:59;;;;;;;7.45;3.08;;;;;;;8.81;80.44;94817.72;5049437;28;20053;-79
2022/04/08 10:11:34;;;;;;;6.57;2.25;;;;;;;8.80;77.04;94820.78;5047643;28;20053;-78
2022/04/08 10:14:12;;;;;;;7.75;3.03;;;;;;;8.77;79.17;94816.03;5049637;28;20064;-79
2022/04/08 10:16:41;;;;;;;7.60;2.08;;;;;;;8.73;78.25;94809.75;5042918;28;20053;-78
2022/04/08 10:19:08;;;;;;;8.38;2.88;;;;;;;8.66;76.14;94806.81;5058562;28;20045;-77
2022/04/08 10:21:39;;;;;;;5.40;2.05;;;;;;;8.76;78.19;94798.19;5049332;28;20049;-78
2022/04/08 10:24:13;;;;;;;8.48;2.85;;;;;;;8.50;75.04;94801.28;5047714;28;20076;-76
2022/04/08 10:26:58;;;;;;;7.57;2.35;;;;;;;8.48;76.56;94796.22;5049292;28;20074;-77
2022/04/08 10:29:25;;;;;;;7.97;3.08;;;;;;;8.47;78.48;94781.09;5047787;28;20728;-77
2022/04/08 10:31:58;;;;;;;7.32;3.08;;;;;;;8.56;79.70;94768.19;5048999;28;20044;-79
2022/04/08 10:34:24;;;;;;;5.85;2.53;;;;;;;8.46;80.39;94757.03;5048023;28;20055;-78
2022/04/08 10:36:52;;;;;;;7.18;2.78;;;;;;;8.48;79.12;94760.16;5048590;28;20053;-79
2022/04/08 10:39:20;;;;;;;6.05;2.40;;;;;;;8.45;77.81;94767.06;5047823;28;20057;-78
2022/04/08 10:41:52;;;;;;;8.82;3.08;;;;;;;8.40;79.18;94753.72;5048012;28;20575;-77
2022/04/08 10:44:31;;;;;;;8.50;3.63;;;;;;;8.45;79.82;94750.78;5048712;28;20589;-77
2022/04/08 10:47:01;;;;;;;5.95;2.90;;;;;;;8.50;80.35;94742.41;5034199;28;20055;-77
2022/04/08 10:49:28;;;;;;;7.13;3.58;;;;;;;8.52;80.47;94737.44;5048097;28;20052;-76
2022/04/08 10:51:55;;;;;;;5.82;2.72;;;;;;;8.45;79.88;94729.06;5047928;28;20048;-79
2022/04/08 10:54:21;;;;;;;8.13;3.40;;;;;;;8.45;79.97;94723.66;5047432;28;20049;-78
2022/04/08 10:56:57;;;;;;;5.82;2.25;;;;;;;8.42;78.37;94729.78;5048437;28;20048;-77
2022/04/08 10:59:26;;;;;;;10.70;3.50;;;;;;;8.39;78.99;94719.59;5046872;28;20121;-78
2022/04/08 11:01:58;;;;;;;12.23;3.60;;;;;;;8.44;80.32;94715.88;5047868;28;20052;-78
2022/04/08 11:04:28;;;;;;;9.48;3.22;;;;;;;8.40;81.04;94707.63;5046811;28;20056;-78
2022/04/08 11:06:54;;;;;;;7.72;3.33;;;;;;;8.27;80.24;94701.41;5049001;28;20048;-77
2022/04/08 11:09:22;;;;;;;7.72;3.08;;;;;;;8.31;81.80;94694.19;5046592;28;20049;-77
2022/04/08 11:11:53;;;;;;;8.35;3.55;;;;;;;8.24;82.53;94687.75;5047842;28;20053;-79
2022/04/08 11:14:19;;;;;;;7.38;2.95;;;;;;;8.23;83.26;94684.25;5052711;28;20078;-78
2022/04/08 11:16:48;;;;;;;8.27;3.50;;;;;;;8.30;83.17;94678.25;5041670;28;20049;-77
2022/04/08 11:19:15;;;;;;;7.07;3.08;;;;;;;8.36;83.94;94671.50;5027422;28;20064;-77
2022/04/08 11:21:43;;;;;;;8.57;3.60;;;;;;;8.38;84.42;94669.22;5026986;28;20830;-78
2022/04/08 11:24:13;;;;;;;7.18;3.17;;;;;;;8.28;84.21;94648.75;5027805;28;20049;-77
2022/04/08 11:26:44;;;;;;;9.50;4.03;;;;;;;8.31;84.98;94647.28;5026986;28;20758;-77
2022/04/08 11:29:12;;;;;;;10.13;3.70;;;;;;;8.41;85.52;94638.69;5027723;28;20096;-77
2022/04/08 11:31:39;;;;;;;11.32;4.20;;;;;;;8.56;86.05;94631.72;5026848;28;20435;-78
2022/04/08 11:34:06;;;;;;;10.95;4.32;;;;;;;8.57;86.36;94622.47;5027583;28;20054;-77
2022/04/08 11:36:34;;;;;;;11.15;5.22;;;;;;;8.54;86.66;94613.09;5026863;28;20515;-77